Terminal Aerodrome Forecast
Issued by NWS Grand Forks, ND

Home | Current Version | Previous Version | Graphics & Text | Print | Product List | Glossary On
Versions: 1 2 3 4 5 6 7 8 9 10 11 12 13 14 15 16 17 18 19 20
609
FTUS43 KFGF 250408 AAA
TAFFAR
TAF AMD
KFAR 250408Z 2504/2524 VRB05KT 4SM -SN OVC025
     FM250600 VRB05KT P6SM OVC020
     FM251300 25010KT P6SM BKN020
     FM251700 26014G19KT P6SM BKN040=

USA.gov is the U.S. government's official web portal to all federal, state and local government web resources and services.